createdAt,value
2018-11-14T00:00:27.810Z,13.30
2018-11-14T00:02:57.450Z,14.60
2018-11-14T00:05:26.712Z,7.93
2018-11-14T00:07:55.652Z,10.27
2018-11-14T00:10:24.881Z,13.47
2018-11-14T00:12:54.881Z,15.10
2018-11-14T00:15:24.957Z,14.10
2018-11-14T00:17:53.954Z,12.73
2018-11-14T00:20:23.173Z,11.63
2018-11-14T00:22:52.284Z,16.25
2018-11-14T00:25:21.107Z,12.43
2018-11-14T00:27:50.361Z,9.63
2018-11-14T00:30:23.646Z,16.00
2018-11-14T00:32:52.987Z,14.10
2018-11-14T00:35:21.960Z,15.23
2018-11-14T00:37:51.229Z,13.90
2018-11-14T00:40:21.008Z,11.60
2018-11-14T00:42:50.125Z,16.10
2018-11-14T00:45:21.045Z,14.60
2018-11-14T00:47:50.677Z,11.47
2018-11-14T00:50:20.493Z,11.67
2018-11-14T00:52:49.741Z,11.80
2018-11-14T00:55:21.827Z,16.67
2018-11-14T00:57:52.177Z,11.93
2018-11-14T01:00:25.210Z,18.07
2018-11-14T01:02:54.900Z,15.27
2018-11-14T01:05:23.809Z,20.63
2018-11-14T01:07:52.606Z,13.30
2018-11-14T01:10:22.513Z,17.10
2018-11-14T01:12:51.728Z,18.10
2018-11-14T01:15:22.619Z,15.45
2018-11-14T01:17:51.548Z,12.70
2018-11-14T01:20:21.919Z,19.40
2018-11-14T01:22:50.919Z,22.93
2018-11-14T01:25:19.932Z,11.43
2018-11-14T01:27:48.853Z,14.40
2018-11-14T01:30:22.894Z,13.43
2018-11-14T01:32:53.085Z,13.07
2018-11-14T01:35:22.502Z,11.40
2018-11-14T01:37:51.620Z,18.03
2018-11-14T01:40:21.713Z,11.17
2018-11-14T01:42:51.908Z,12.33
2018-11-14T01:45:20.732Z,13.57
2018-11-14T01:47:49.780Z,11.03
2018-11-14T01:50:19.065Z,15.17
2018-11-14T01:52:48.399Z,9.73
2018-11-14T01:55:19.219Z,13.63
2018-11-14T01:57:48.580Z,15.27
2018-11-14T02:00:20.010Z,10.77
2018-11-14T02:02:49.274Z,12.40
2018-11-14T02:05:18.199Z,10.17
2018-11-14T02:07:47.722Z,11.47
2018-11-14T02:10:17.901Z,16.47
2018-11-14T02:12:47.222Z,13.00
2018-11-14T02:15:17.872Z,12.40
2018-11-14T02:17:46.719Z,11.83
2018-11-14T02:20:15.525Z,22.67
2018-11-14T02:22:45.281Z,15.47
2018-11-14T02:25:15.031Z,12.50
2018-11-14T02:27:43.924Z,7.00
2018-11-14T02:30:17.512Z,18.63
2018-11-14T02:32:46.725Z,7.80
2018-11-14T02:35:16.086Z,9.37
2018-11-14T02:37:45.868Z,22.23
2018-11-14T02:40:18.099Z,10.37
2018-11-14T02:42:47.049Z,11.43
2018-11-14T02:45:16.472Z,11.63
2018-11-14T02:47:45.418Z,15.90
2018-11-14T02:50:15.638Z,13.57
2018-11-14T02:52:44.519Z,14.40
2018-11-14T02:55:14.324Z,13.43
2018-11-14T02:57:43.541Z,18.13
2018-11-14T03:00:14.210Z,16.40
2018-11-14T03:02:43.594Z,10.70
2018-11-14T03:05:12.904Z,12.17
2018-11-14T03:07:42.212Z,12.03
2018-11-14T03:10:12.656Z,10.47
2018-11-14T03:12:41.694Z,7.70
2018-11-14T03:15:12.697Z,8.67
2018-11-14T03:17:41.890Z,7.93
2018-11-14T03:20:12.577Z,10.73
2018-11-14T03:22:41.861Z,9.90
2018-11-14T03:25:12.189Z,15.87
2018-11-14T03:27:41.094Z,11.77
2018-11-14T03:30:11.753Z,10.37
2018-11-14T03:32:41.342Z,15.60
2018-11-14T03:35:11.444Z,13.53
2018-11-14T03:37:40.384Z,13.03
2018-11-14T03:40:10.564Z,7.33
2018-11-14T03:42:39.387Z,5.80
2018-11-14T03:45:09.137Z,13.87
2018-11-14T03:47:38.978Z,9.37
2018-11-14T03:50:08.387Z,11.60
2018-11-14T03:52:37.289Z,8.33
2018-11-14T03:55:06.174Z,11.27
2018-11-14T03:57:35.453Z,11.50
2018-11-14T04:00:06.067Z,6.57
2018-11-14T04:02:35.244Z,11.70
2018-11-14T04:05:05.143Z,9.10
2018-11-14T04:07:34.650Z,9.03
2018-11-14T04:10:04.261Z,13.93
2018-11-14T04:12:33.587Z,11.13
2018-11-14T04:15:02.504Z,10.87
2018-11-14T04:17:31.705Z,13.23
2018-11-14T04:20:01.004Z,7.97
2018-11-14T04:22:30.582Z,8.83
2018-11-14T04:24:59.468Z,10.40
2018-11-14T04:27:28.710Z,12.27
2018-11-14T04:29:57.639Z,9.57
2018-11-14T04:32:26.748Z,11.77
2018-11-14T04:34:55.953Z,11.97
2018-11-14T04:37:24.861Z,12.40
2018-11-14T04:39:54.771Z,9.40
2018-11-14T04:42:24.065Z,9.73
2018-11-14T04:44:54.183Z,9.93
2018-11-14T04:47:22.997Z,11.57
2018-11-14T04:49:52.229Z,11.27
2018-11-14T04:52:21.150Z,11.27
2018-11-14T04:54:50.353Z,9.83
2018-11-14T04:57:20.333Z,14.83
2018-11-14T04:59:49.633Z,10.30
2018-11-14T05:02:19.024Z,14.43
2018-11-14T05:04:47.892Z,10.27
2018-11-14T05:07:16.722Z,17.27
2018-11-14T05:09:45.967Z,13.63
2018-11-14T05:12:14.897Z,14.67
2018-11-14T05:14:43.709Z,12.30
2018-11-14T05:17:12.538Z,14.97
2018-11-14T05:19:41.340Z,11.70
2018-11-14T05:22:10.585Z,16.23
2018-11-14T05:24:39.489Z,12.33
2018-11-14T05:27:08.621Z,13.70
2018-11-14T05:29:37.425Z,14.53
2018-11-14T05:32:06.253Z,16.13
2018-11-14T05:34:35.588Z,17.85
2018-11-14T05:37:04.515Z,12.93
2018-11-14T05:39:33.767Z,18.30
2018-11-14T05:42:02.697Z,12.63
2018-11-14T05:44:31.533Z,17.57
2018-11-14T05:47:00.357Z,12.00
2018-11-14T05:49:29.604Z,15.03
2018-11-14T05:51:58.487Z,15.07
2018-11-14T05:54:27.681Z,11.53
2018-11-14T05:56:56.577Z,9.97
2018-11-14T05:59:25.426Z,13.27
2018-11-14T06:01:54.224Z,8.60
2018-11-14T06:04:24.096Z,12.90
2018-11-14T06:06:53.461Z,11.40
2018-11-14T06:09:22.469Z,16.00
2018-11-14T06:11:51.738Z,13.60
2018-11-14T06:14:21.098Z,9.83
2018-11-14T06:16:50.028Z,9.37
2018-11-14T06:19:19.363Z,13.80
2018-11-14T06:21:48.677Z,13.50
2018-11-14T06:24:17.556Z,17.30
2018-11-14T06:26:46.379Z,9.90
2018-11-14T06:29:15.652Z,11.40
2018-11-14T06:31:44.654Z,12.43
2018-11-14T06:34:13.853Z,10.27
2018-11-14T06:36:42.829Z,9.77
2018-11-14T06:39:12.277Z,9.57
2018-11-14T06:41:41.580Z,12.53
2018-11-14T06:44:10.629Z,10.08
2018-11-14T06:46:39.536Z,15.80
2018-11-14T06:49:08.341Z,9.90
2018-11-14T06:51:37.600Z,10.70
2018-11-14T06:54:06.515Z,3.37
2018-11-14T06:56:35.381Z,10.57
2018-11-14T06:59:04.357Z,12.10
2018-11-14T07:01:33.497Z,9.63
2018-11-14T07:04:02.825Z,14.70
2018-11-14T07:06:31.715Z,7.12
2018-11-14T07:09:00.565Z,9.93
2018-11-14T07:11:29.557Z,11.67
2018-11-14T07:13:58.897Z,8.50
2018-11-14T07:16:27.840Z,10.48
2018-11-14T07:18:56.656Z,9.63
2018-11-14T07:21:25.524Z,14.80
2018-11-14T07:23:54.340Z,10.83
2018-11-14T07:26:23.700Z,8.43
2018-11-14T07:28:52.673Z,8.33
2018-11-14T07:31:21.937Z,11.57
2018-11-14T07:33:50.995Z,6.83
2018-11-14T07:36:20.508Z,5.22
2018-11-14T07:38:50.669Z,8.63
2018-11-14T07:41:23.932Z,5.47
2018-11-14T07:43:53.041Z,7.60
2018-11-14T07:46:22.486Z,10.73
2018-11-14T07:48:51.697Z,7.17
2018-11-14T07:51:20.709Z,10.30
2018-11-14T07:53:49.537Z,5.37
2018-11-14T07:56:18.807Z,8.13
2018-11-14T07:58:47.893Z,5.33
2018-11-14T08:01:16.765Z,6.73
2018-11-14T08:03:48.135Z,12.87
2018-11-14T08:06:17.036Z,13.67
2018-11-14T08:08:46.525Z,9.80
2018-11-14T08:11:15.405Z,9.23
2018-11-14T08:13:46.644Z,8.10
2018-11-14T08:16:16.022Z,6.83
2018-11-14T08:18:44.948Z,7.17
2018-11-14T08:21:13.784Z,10.03
2018-11-14T08:23:43.060Z,18.00
2018-11-14T08:26:11.872Z,6.23
2018-11-14T08:28:41.075Z,4.73
2018-11-14T08:31:10.435Z,8.33
2018-11-14T08:33:39.449Z,7.97
2018-11-14T08:36:08.251Z,3.97
2018-11-14T08:38:37.089Z,7.00
2018-11-14T08:41:06.414Z,5.70
2018-11-14T08:43:35.727Z,7.33
2018-11-14T08:46:04.866Z,5.77
2018-11-14T08:48:33.715Z,4.05
2018-11-14T08:51:02.521Z,8.77
2018-11-14T08:53:31.348Z,3.47
2018-11-14T08:56:00.594Z,9.63
2018-11-14T08:58:29.501Z,4.37
2018-11-14T09:00:58.384Z,7.03
2018-11-14T09:03:27.604Z,8.40
2018-11-14T09:05:56.897Z,9.83
2018-11-14T09:08:25.824Z,6.07
2018-11-14T09:10:54.706Z,4.50
2018-11-14T09:13:23.554Z,4.13
2018-11-14T09:15:52.368Z,16.47
2018-11-14T09:18:21.347Z,6.67
2018-11-14T09:20:50.112Z,5.07
2018-11-14T09:23:19.641Z,5.17
2018-11-14T09:25:48.936Z,6.97
2018-11-14T09:28:17.854Z,8.23
2018-11-14T09:30:46.725Z,8.70
2018-11-14T09:33:15.627Z,5.27
2018-11-14T09:35:44.377Z,3.57
2018-11-14T09:38:13.189Z,4.27
2018-11-14T09:40:42.495Z,4.90
2018-11-14T09:43:11.312Z,7.67
2018-11-14T09:45:40.137Z,6.60
2018-11-14T09:48:08.992Z,3.97
2018-11-14T09:50:38.210Z,8.27
2018-11-14T09:53:07.754Z,5.67
2018-11-14T09:55:36.593Z,7.42
2018-11-14T09:58:05.417Z,6.57
2018-11-14T10:00:35.008Z,6.50
2018-11-14T10:03:11.604Z,6.50
2018-11-14T10:05:40.431Z,5.37
2018-11-14T10:08:09.283Z,5.13
2018-11-14T10:10:38.822Z,5.20
2018-11-14T10:13:07.752Z,5.33
2018-11-14T10:15:37.010Z,7.37
2018-11-14T10:18:05.936Z,7.87
2018-11-14T10:20:35.217Z,6.07
2018-11-14T10:23:04.172Z,4.10
2018-11-14T10:25:32.967Z,7.70
2018-11-14T10:28:02.217Z,4.23
2018-11-14T10:30:31.106Z,7.67
2018-11-14T10:33:00.400Z,4.73
2018-11-14T10:35:29.357Z,3.60
2018-11-14T10:37:58.539Z,5.03
2018-11-14T10:40:28.569Z,5.43
2018-11-14T10:42:57.600Z,8.77
2018-11-14T10:45:27.144Z,4.10
2018-11-14T10:47:55.960Z,4.50
2018-11-14T10:50:26.612Z,6.07
2018-11-14T10:52:55.481Z,6.13
2018-11-14T10:55:25.041Z,4.90
2018-11-14T10:57:54.187Z,4.73
2018-11-14T11:00:28.976Z,3.07
2018-11-14T11:03:03.809Z,4.07
2018-11-14T11:05:44.002Z,7.67
2018-11-14T11:08:18.730Z,7.57
2018-11-14T11:10:53.045Z,3.57
2018-11-14T11:13:27.409Z,7.13
2018-11-14T11:16:01.609Z,9.20
2018-11-14T11:18:32.031Z,4.97
2018-11-14T11:21:01.439Z,4.10
2018-11-14T11:23:30.656Z,5.25
2018-11-14T11:25:59.445Z,6.60
2018-11-14T11:28:28.732Z,6.28
2018-11-14T11:30:57.599Z,6.80
2018-11-14T11:33:26.409Z,6.20
2018-11-14T11:35:55.208Z,3.60
2018-11-14T11:38:24.149Z,6.23
2018-11-14T11:40:52.990Z,7.80
2018-11-14T11:43:21.780Z,7.47
2018-11-14T11:45:50.577Z,3.97
2018-11-14T11:48:20.034Z,6.13
2018-11-14T11:50:48.961Z,9.70
2018-11-14T11:53:17.816Z,4.73
2018-11-14T11:55:46.680Z,3.77
2018-11-14T11:58:15.561Z,5.10
2018-11-14T12:00:44.881Z,6.83
2018-11-14T12:03:14.172Z,4.50
2018-11-14T12:05:43.939Z,4.47
2018-11-14T12:08:12.844Z,5.90
2018-11-14T12:10:42.202Z,3.67
2018-11-14T12:13:11.688Z,5.97
2018-11-14T12:15:40.921Z,6.40
2018-11-14T12:18:09.961Z,3.07
2018-11-14T12:20:39.042Z,4.40
2018-11-14T12:23:08.344Z,2.40
2018-11-14T12:25:37.330Z,5.42
2018-11-14T12:28:06.153Z,3.57
2018-11-14T12:30:35.522Z,5.97
2018-11-14T12:33:04.333Z,5.17
2018-11-14T12:35:33.219Z,4.55
2018-11-14T12:38:02.057Z,5.13
2018-11-14T12:40:31.325Z,7.37
2018-11-14T12:43:00.237Z,5.83
2018-11-14T12:45:29.071Z,5.63
2018-11-14T12:47:57.932Z,3.37
2018-11-14T12:50:26.837Z,5.40
2018-11-14T12:52:56.078Z,4.00
2018-11-14T12:55:24.986Z,4.23
2018-11-14T12:57:54.432Z,2.50
2018-11-14T13:00:23.945Z,4.70
2018-11-14T13:02:53.201Z,2.93
2018-11-14T13:05:22.080Z,5.63
2018-11-14T13:07:51.363Z,4.00
2018-11-14T13:10:20.272Z,5.13
2018-11-14T13:12:49.804Z,3.17
2018-11-14T13:15:20.199Z,5.23
2018-11-14T13:17:49.005Z,3.83
2018-11-14T13:20:22.559Z,2.50
2018-11-14T13:22:51.434Z,1.90
2018-11-14T13:25:20.264Z,4.47
2018-11-14T13:27:49.347Z,5.73
2018-11-14T13:30:19.657Z,3.20
2018-11-14T13:32:49.573Z,2.87
2018-11-14T13:35:19.511Z,7.60
2018-11-14T13:37:49.188Z,4.80
2018-11-14T13:40:18.116Z,4.23
2018-11-14T13:42:47.037Z,5.43
2018-11-14T13:45:17.130Z,6.73
2018-11-14T13:47:45.952Z,6.13
2018-11-14T13:50:20.549Z,4.10
2018-11-14T13:52:49.243Z,5.27
2018-11-14T13:55:19.021Z,2.47
2018-11-14T13:57:48.970Z,6.50
2018-11-14T14:00:18.829Z,2.53
2018-11-14T14:02:48.311Z,3.60
2018-11-14T14:05:18.489Z,7.70
2018-11-14T14:07:47.326Z,4.63
2018-11-14T14:10:16.773Z,3.77
2018-11-14T14:12:49.785Z,4.10
2018-11-14T14:15:20.527Z,7.63
2018-11-14T14:17:50.205Z,3.40
2018-11-14T14:20:20.831Z,3.67
2018-11-14T14:22:49.832Z,4.30
2018-11-14T14:25:20.466Z,5.07
2018-11-14T14:27:49.777Z,3.62
2018-11-14T14:30:20.013Z,2.27
2018-11-14T14:32:49.078Z,5.77
2018-11-14T14:35:19.479Z,4.30
2018-11-14T14:37:48.879Z,6.70
2018-11-14T14:40:20.176Z,5.07
2018-11-14T14:42:49.040Z,3.57
2018-11-14T14:45:20.772Z,3.97
2018-11-14T14:47:49.635Z,8.33
2018-11-14T14:50:19.824Z,2.33
2018-11-14T14:52:49.179Z,4.87
2018-11-14T14:55:20.686Z,6.20
2018-11-14T14:57:49.621Z,5.93
2018-11-14T15:00:26.659Z,4.47
2018-11-14T15:02:55.534Z,7.00
2018-11-14T15:05:24.365Z,8.20
2018-11-14T15:07:53.160Z,4.73
2018-11-14T15:10:23.002Z,5.37
2018-11-14T15:12:51.894Z,4.73
2018-11-14T15:15:21.051Z,4.93
2018-11-14T15:17:49.946Z,6.10
2018-11-14T15:20:23.723Z,8.38
2018-11-14T15:22:52.657Z,4.17
2018-11-14T15:25:22.568Z,11.97
2018-11-14T15:27:51.742Z,8.97
2018-11-14T15:30:23.077Z,3.77
2018-11-14T15:32:52.032Z,5.65
2018-11-14T15:35:21.346Z,4.47
2018-11-14T15:37:50.594Z,7.13
2018-11-14T15:40:20.693Z,4.60
2018-11-14T15:42:49.637Z,5.87
2018-11-14T15:45:33.297Z,5.60
2018-11-14T15:48:02.114Z,3.90
2018-11-14T15:50:31.188Z,6.70
2018-11-14T15:53:00.124Z,5.80
2018-11-14T15:55:28.996Z,6.33
2018-11-14T15:57:58.030Z,15.80
2018-11-14T16:00:28.859Z,7.13
2018-11-14T16:02:57.785Z,11.07
2018-11-14T16:05:27.810Z,7.37
2018-11-14T16:07:57.889Z,8.17
2018-11-14T16:10:27.680Z,6.97
2018-11-14T16:12:56.523Z,8.83
2018-11-14T16:15:29.865Z,5.87
2018-11-14T16:17:58.699Z,9.77
2018-11-14T16:20:27.739Z,6.63
2018-11-14T16:22:56.609Z,5.50
2018-11-14T16:25:26.181Z,10.33
2018-11-14T16:27:56.302Z,7.00
2018-11-14T16:30:26.391Z,11.70
2018-11-14T16:32:56.510Z,10.43
2018-11-14T16:35:25.837Z,10.73
2018-11-14T16:37:54.824Z,6.50
2018-11-14T16:40:28.124Z,11.80
2018-11-14T16:42:57.938Z,8.57
2018-11-14T16:45:26.800Z,9.95
2018-11-14T16:47:55.692Z,10.93
2018-11-14T16:50:24.943Z,10.27
2018-11-14T16:52:54.327Z,15.47
2018-11-14T16:55:23.629Z,11.43
2018-11-14T16:57:54.025Z,12.97
2018-11-14T17:00:24.396Z,8.83
2018-11-14T17:02:53.304Z,15.93
2018-11-14T17:05:23.235Z,20.13
2018-11-14T17:07:52.676Z,9.50
2018-11-14T17:10:22.210Z,8.30
2018-11-14T17:12:52.404Z,14.10
2018-11-14T17:15:22.524Z,15.10
2018-11-14T17:17:51.362Z,16.97
2018-11-14T17:20:21.064Z,15.03
2018-11-14T17:22:51.230Z,15.10
2018-11-14T17:25:21.220Z,9.00
2018-11-14T17:27:50.354Z,12.73
2018-11-14T17:30:20.577Z,14.33
2018-11-14T17:32:49.409Z,13.97
2018-11-14T17:35:18.593Z,9.13
2018-11-14T17:37:47.512Z,9.37
2018-11-14T17:40:19.037Z,10.20
2018-11-14T17:42:48.673Z,10.53
2018-11-14T17:45:18.338Z,11.03
2018-11-14T17:47:47.836Z,11.20
2018-11-14T17:50:20.957Z,10.40
2018-11-14T17:52:51.144Z,11.13
2018-11-14T17:55:21.724Z,10.43
2018-11-14T17:57:50.478Z,13.10
2018-11-14T18:00:22.040Z,15.07
2018-11-14T18:02:50.885Z,14.50
2018-11-14T18:05:22.806Z,12.30
2018-11-14T18:07:52.263Z,11.50
2018-11-14T18:10:25.157Z,9.97
2018-11-14T18:12:55.897Z,13.77
2018-11-14T18:15:24.807Z,15.10
2018-11-14T18:17:54.839Z,14.00
2018-11-14T18:20:25.907Z,10.53
2018-11-14T18:22:54.946Z,19.47
2018-11-14T18:25:23.810Z,10.63
2018-11-14T18:27:53.035Z,14.03
2018-11-14T18:30:24.272Z,16.43
2018-11-14T18:32:53.696Z,16.20
2018-11-14T18:35:23.089Z,10.63
2018-11-14T18:37:52.879Z,14.43
2018-11-14T18:40:23.024Z,16.70
2018-11-14T18:42:52.464Z,13.40
2018-11-14T18:45:24.296Z,16.10
2018-11-14T18:47:53.836Z,13.77
2018-11-14T18:50:23.170Z,16.83
2018-11-14T18:52:52.842Z,16.20
2018-11-14T18:55:23.149Z,22.50
2018-11-14T18:57:52.214Z,15.23
2018-11-14T19:00:25.122Z,19.77
2018-11-14T19:02:54.021Z,18.77
2018-11-14T19:05:23.324Z,16.93
2018-11-14T19:07:52.196Z,17.90
2018-11-14T19:10:23.514Z,15.80
2018-11-14T19:12:52.909Z,19.83
2018-11-14T19:15:23.515Z,16.03
2018-11-14T19:17:52.414Z,14.57
2018-11-14T19:20:28.560Z,23.37
2018-11-14T19:22:58.264Z,17.27
2018-11-14T19:25:29.133Z,21.50
2018-11-14T19:27:58.150Z,17.77
2018-11-14T19:30:28.397Z,14.43
2018-11-14T19:32:58.198Z,20.90
2018-11-14T19:35:27.174Z,18.95
2018-11-14T19:37:57.411Z,13.30
2018-11-14T19:40:28.831Z,16.35
2018-11-14T19:42:58.404Z,19.57
2018-11-14T19:45:29.752Z,15.47
2018-11-14T19:47:58.608Z,18.63
2018-11-14T19:50:27.508Z,16.00
2018-11-14T19:52:57.049Z,19.20
2018-11-14T19:55:27.124Z,17.83
2018-11-14T19:57:57.573Z,20.23
2018-11-14T20:00:28.025Z,25.50
2018-11-14T20:03:03.563Z,22.03
2018-11-14T20:05:32.417Z,26.97
2018-11-14T20:08:01.410Z,30.10
2018-11-14T20:10:31.554Z,30.47
2018-11-14T20:13:00.420Z,22.40
2018-11-14T20:15:30.584Z,24.63
2018-11-14T20:17:59.480Z,30.67
2018-11-14T20:20:29.695Z,27.43
2018-11-14T20:22:58.936Z,23.73
2018-11-14T20:25:27.919Z,32.58
2018-11-14T20:27:57.149Z,27.17
2018-11-14T20:30:27.871Z,28.70
2018-11-14T20:32:57.777Z,27.57
2018-11-14T20:35:27.146Z,28.57
2018-11-14T20:37:56.192Z,29.73
2018-11-14T20:40:26.252Z,31.90
2018-11-14T20:42:55.589Z,28.13
2018-11-14T20:45:30.217Z,30.60
2018-11-14T20:47:59.180Z,26.87
2018-11-14T20:50:28.872Z,23.43
2018-11-14T20:52:58.700Z,22.07
2018-11-14T20:55:28.336Z,27.55
2018-11-14T20:57:57.470Z,28.70
2018-11-14T21:00:27.631Z,23.60
2018-11-14T21:02:57.232Z,22.23
2018-11-14T21:05:27.235Z,20.23
2018-11-14T21:07:56.479Z,23.80
2018-11-14T21:10:27.593Z,18.20
2018-11-14T21:12:56.608Z,17.57
2018-11-14T21:15:27.821Z,24.30
2018-11-14T21:17:57.660Z,17.63
2018-11-14T21:20:26.917Z,20.43
2018-11-14T21:22:55.784Z,15.13
2018-11-14T21:25:25.221Z,23.80
2018-11-14T21:27:55.522Z,24.00
2018-11-14T21:30:25.650Z,19.23
2018-11-14T21:32:54.893Z,18.53
2018-11-14T21:35:25.733Z,24.92
2018-11-14T21:37:55.983Z,19.83
2018-11-14T21:40:24.813Z,17.30
2018-11-14T21:42:53.768Z,21.30
2018-11-14T21:45:23.785Z,16.33
2018-11-14T21:47:57.865Z,19.00
2018-11-14T21:50:28.369Z,19.73
2018-11-14T21:52:57.371Z,16.97
2018-11-14T21:55:27.036Z,20.97
2018-11-14T21:57:55.992Z,23.93
2018-11-14T22:00:29.065Z,19.40
2018-11-14T22:02:57.912Z,21.67
2018-11-14T22:05:27.236Z,18.67
2018-11-14T22:07:56.426Z,18.03
2018-11-14T22:10:25.893Z,21.05
2018-11-14T22:12:55.143Z,19.40
2018-11-14T22:15:25.100Z,15.23
2018-11-14T22:17:53.976Z,19.43
2018-11-14T22:20:24.509Z,15.63
2018-11-14T22:22:53.373Z,18.17
2018-11-14T22:25:23.351Z,18.60
2018-11-14T22:27:52.850Z,14.97
2018-11-14T22:30:23.472Z,17.87
2018-11-14T22:32:52.320Z,13.30
2018-11-14T22:35:22.554Z,18.33
2018-11-14T22:37:51.373Z,16.90
2018-11-14T22:40:22.929Z,18.77
2018-11-14T22:42:51.885Z,18.37
2018-11-14T22:45:22.457Z,18.47
2018-11-14T22:47:51.829Z,18.20
2018-11-14T22:50:22.182Z,21.20
2018-11-14T22:52:51.388Z,14.93
2018-11-14T22:55:21.208Z,19.87
2018-11-14T22:57:50.697Z,15.47
2018-11-14T23:00:26.241Z,19.27
2018-11-14T23:02:57.185Z,20.33
2018-11-14T23:05:26.502Z,17.23
2018-11-14T23:07:57.118Z,16.47
2018-11-14T23:10:26.929Z,17.17
2018-11-14T23:12:56.744Z,19.87
2018-11-14T23:15:25.893Z,17.90
2018-11-14T23:17:54.696Z,14.40
2018-11-14T23:20:23.516Z,15.50
2018-11-14T23:22:53.030Z,21.50
2018-11-14T23:25:22.361Z,18.60
2018-11-14T23:27:52.353Z,20.27
2018-11-14T23:30:22.773Z,15.37
2018-11-14T23:32:52.989Z,16.83
2018-11-14T23:35:24.345Z,16.03
2018-11-14T23:37:55.117Z,16.97
2018-11-14T23:40:24.076Z,18.48
2018-11-14T23:42:52.902Z,17.00
2018-11-14T23:45:22.591Z,15.13
2018-11-14T23:47:51.571Z,16.70
2018-11-14T23:50:23.544Z,15.47
2018-11-14T23:52:53.380Z,20.00
2018-11-14T23:55:22.874Z,24.77
2018-11-14T23:57:52.143Z,18.70
